createdAt,value
2018-06-08T00:00:51.738Z,8.83
2018-06-08T00:03:20.314Z,8.67
2018-06-08T00:05:48.505Z,9.10
2018-06-08T00:08:16.985Z,9.37
2018-06-08T00:10:45.165Z,7.90
2018-06-08T00:13:13.640Z,7.60
2018-06-08T00:15:42.190Z,8.90
2018-06-08T00:18:10.898Z,8.70
2018-06-08T00:20:39.084Z,9.10
2018-06-08T00:23:07.626Z,10.03
2018-06-08T00:25:36.123Z,9.30
2018-06-08T00:28:04.633Z,8.37
2018-06-08T00:30:32.812Z,8.73
2018-06-08T00:33:01.522Z,8.70
2018-06-08T00:35:30.064Z,7.70
2018-06-08T00:37:58.538Z,7.93
2018-06-08T00:40:27.031Z,8.67
2018-06-08T00:42:55.208Z,8.43
2018-06-08T00:45:23.754Z,9.00
2018-06-08T00:47:52.262Z,9.43
2018-06-08T00:50:20.770Z,9.17
2018-06-08T00:52:49.296Z,9.83
2018-06-08T00:55:17.803Z,9.47
2018-06-08T00:57:46.283Z,9.00
2018-06-08T01:00:14.824Z,8.67
2018-06-08T01:02:43.306Z,10.40
2018-06-08T01:05:11.806Z,9.50
2018-06-08T01:07:40.313Z,10.00
2018-06-08T01:10:09.012Z,9.23
2018-06-08T01:12:37.526Z,10.03
2018-06-08T01:15:06.541Z,9.40
2018-06-08T01:17:35.073Z,9.50
2018-06-08T01:20:03.644Z,9.23
2018-06-08T01:22:32.227Z,8.47
2018-06-08T01:25:01.340Z,10.40
2018-06-08T01:27:29.938Z,11.17
2018-06-08T01:30:00.882Z,12.53
2018-06-08T01:32:29.568Z,13.83
2018-06-08T01:34:58.157Z,14.97
2018-06-08T01:37:27.506Z,14.00
2018-06-08T01:40:02.200Z,14.33
2018-06-08T01:42:30.725Z,14.40
2018-06-08T01:44:59.213Z,13.93
2018-06-08T01:47:27.738Z,15.40
2018-06-08T01:50:01.701Z,15.00
2018-06-08T01:52:30.222Z,15.30
2018-06-08T01:54:58.397Z,15.63
2018-06-08T01:57:26.889Z,14.37
2018-06-08T01:59:55.394Z,14.47
2018-06-08T02:02:23.940Z,14.30
2018-06-08T02:04:52.450Z,12.63
2018-06-08T02:07:20.892Z,13.73
2018-06-08T02:09:49.409Z,12.13
2018-06-08T02:12:17.864Z,12.67
2018-06-08T02:14:46.347Z,13.63
2018-06-08T02:17:14.775Z,14.27
2018-06-08T02:19:49.024Z,14.33
2018-06-08T02:22:17.461Z,13.10
2018-06-08T02:24:45.977Z,14.10
2018-06-08T02:27:14.470Z,14.10
2018-06-08T02:29:43.011Z,15.60
2018-06-08T02:32:11.499Z,15.63
2018-06-08T02:34:39.950Z,16.57
2018-06-08T02:37:08.112Z,16.43
2018-06-08T02:39:36.557Z,16.70
2018-06-08T02:42:05.181Z,16.90
2018-06-08T02:44:33.667Z,16.73
2018-06-08T02:47:02.128Z,16.20
2018-06-08T02:49:32.714Z,14.77
2018-06-08T02:52:01.330Z,15.53
2018-06-08T02:54:29.838Z,16.33
2018-06-08T02:56:58.343Z,13.50
2018-06-08T02:59:26.954Z,13.80
2018-06-08T03:01:55.447Z,15.60
2018-06-08T03:04:24.018Z,13.53
2018-06-08T03:06:52.538Z,14.80
2018-06-08T03:09:21.130Z,15.70
2018-06-08T03:11:49.325Z,14.43
2018-06-08T03:14:17.846Z,13.53
2018-06-08T03:16:46.339Z,12.33
2018-06-08T03:19:14.849Z,12.67
2018-06-08T03:21:43.333Z,13.93
2018-06-08T03:24:11.793Z,10.80
2018-06-08T03:26:40.270Z,10.70
2018-06-08T03:29:08.700Z,10.63
2018-06-08T03:31:37.151Z,10.13
2018-06-08T03:34:05.769Z,8.20
2018-06-08T03:36:33.904Z,8.20
2018-06-08T03:39:03.103Z,8.80
2018-06-08T03:41:31.545Z,7.67
2018-06-08T03:44:00.016Z,8.93
2018-06-08T03:46:28.493Z,8.27
2018-06-08T03:48:56.976Z,7.80
2018-06-08T03:51:25.418Z,8.83
2018-06-08T03:53:53.930Z,8.83
2018-06-08T03:56:22.354Z,7.53
2018-06-08T03:58:50.849Z,8.77
2018-06-08T04:01:19.322Z,7.40
2018-06-08T04:03:47.816Z,6.53
2018-06-08T04:06:16.258Z,5.80
2018-06-08T04:08:44.412Z,5.43
2018-06-08T04:11:12.877Z,5.63
2018-06-08T04:13:41.356Z,5.83
2018-06-08T04:16:09.817Z,5.70
2018-06-08T04:18:38.281Z,5.30
2018-06-08T04:21:06.845Z,5.00
2018-06-08T04:23:35.285Z,4.20
2018-06-08T04:26:03.770Z,4.37
2018-06-08T04:28:32.557Z,4.93
2018-06-08T04:31:01.006Z,5.20
2018-06-08T04:33:29.425Z,3.70
2018-06-08T04:35:57.859Z,4.17
2018-06-08T04:38:26.301Z,4.50
2018-06-08T04:40:54.947Z,4.20
2018-06-08T04:43:23.434Z,4.57
2018-06-08T04:45:51.909Z,5.07
2018-06-08T04:48:20.425Z,5.40
2018-06-08T04:50:48.935Z,4.60
2018-06-08T04:53:17.397Z,4.87
2018-06-08T04:55:45.904Z,4.20
2018-06-08T04:58:14.444Z,4.47
2018-06-08T05:00:42.894Z,5.83
2018-06-08T05:03:11.415Z,5.17
2018-06-08T05:05:39.979Z,5.30
2018-06-08T05:08:08.429Z,5.10
2018-06-08T05:10:36.877Z,5.50
2018-06-08T05:13:05.317Z,5.73
2018-06-08T05:15:33.818Z,5.40
2018-06-08T05:18:02.537Z,5.47
2018-06-08T05:20:31.057Z,5.40
2018-06-08T05:23:00.450Z,5.60
2018-06-08T05:25:29.075Z,5.80
2018-06-08T05:27:57.626Z,5.50
2018-06-08T05:30:27.424Z,5.80
2018-06-08T05:32:56.558Z,5.90
2018-06-08T05:35:25.129Z,5.17
2018-06-08T05:37:53.577Z,6.33
2018-06-08T05:40:21.701Z,6.70
2018-06-08T05:42:51.379Z,6.57
2018-06-08T05:45:20.135Z,7.60
2018-06-08T05:47:48.700Z,7.23
2018-06-08T05:50:17.205Z,7.47
2018-06-08T05:52:45.645Z,7.37
2018-06-08T05:55:14.350Z,6.87
2018-06-08T05:57:42.866Z,7.90
2018-06-08T06:00:11.459Z,7.87
2018-06-08T06:02:39.673Z,7.97
2018-06-08T06:05:08.565Z,7.37
2018-06-08T06:07:37.342Z,8.23
2018-06-08T06:10:06.405Z,8.00
2018-06-08T06:12:34.575Z,7.67
2018-06-08T06:15:03.247Z,7.27
2018-06-08T06:17:31.839Z,7.67
2018-06-08T06:20:00.110Z,8.93
2018-06-08T06:22:28.611Z,8.47
2018-06-08T06:24:57.191Z,6.83
2018-06-08T06:27:26.423Z,7.30
2018-06-08T06:29:55.181Z,7.33
2018-06-08T06:32:24.889Z,6.70
2018-06-08T06:34:53.174Z,7.60
2018-06-08T06:37:21.496Z,6.20
2018-06-08T06:39:50.516Z,7.73
2018-06-08T06:42:19.449Z,6.93
2018-06-08T06:44:48.547Z,7.07
2018-06-08T06:47:18.156Z,6.90
2018-06-08T06:49:46.790Z,6.47
2018-06-08T06:52:16.000Z,7.20
2018-06-08T06:54:44.610Z,7.70
2018-06-08T06:57:13.351Z,7.60
2018-06-08T06:59:42.080Z,7.57
2018-06-08T07:02:10.393Z,8.50
2018-06-08T07:04:39.363Z,7.90
2018-06-08T07:07:07.702Z,9.40
2018-06-08T07:09:36.419Z,9.77
2018-06-08T07:12:05.088Z,7.60
2018-06-08T07:14:33.681Z,9.23
2018-06-08T07:17:02.350Z,8.47
2018-06-08T07:19:30.958Z,8.33
2018-06-08T07:21:59.569Z,8.57
2018-06-08T07:24:28.315Z,9.57
2018-06-08T07:26:56.993Z,9.20
2018-06-08T07:29:25.632Z,9.83
2018-06-08T07:31:54.375Z,9.43
2018-06-08T07:34:23.119Z,10.10
2018-06-08T07:36:51.796Z,10.50
2018-06-08T07:39:20.450Z,10.67
2018-06-08T07:41:48.751Z,10.40
2018-06-08T07:44:17.461Z,9.90
2018-06-08T07:46:46.131Z,12.00
2018-06-08T07:49:14.824Z,10.10
2018-06-08T07:51:43.586Z,10.80
2018-06-08T07:54:12.258Z,10.60
2018-06-08T07:56:40.938Z,10.30
2018-06-08T07:59:09.549Z,10.00
2018-06-08T08:01:38.174Z,10.30
2018-06-08T08:04:06.829Z,11.57
2018-06-08T08:06:35.479Z,12.40
2018-06-08T08:09:06.714Z,12.07
2018-06-08T08:11:35.325Z,11.03
2018-06-08T08:14:04.598Z,11.10
2018-06-08T08:16:33.302Z,10.60
2018-06-08T08:19:01.935Z,10.70
2018-06-08T08:21:30.584Z,10.07
2018-06-08T08:23:59.164Z,10.30
2018-06-08T08:26:27.835Z,10.57
2018-06-08T08:28:56.531Z,10.20
2018-06-08T08:31:25.241Z,10.50
2018-06-08T08:33:53.895Z,9.63
2018-06-08T08:36:22.521Z,10.17
2018-06-08T08:38:50.821Z,9.80
2018-06-08T08:41:19.462Z,9.50
2018-06-08T08:43:48.062Z,10.87
2018-06-08T08:46:16.688Z,10.90
2018-06-08T08:48:45.447Z,8.80
2018-06-08T08:51:15.192Z,9.50
2018-06-08T08:53:43.870Z,10.47
2018-06-08T08:56:13.110Z,10.33
2018-06-08T08:58:42.807Z,10.80
2018-06-08T09:01:12.187Z,9.67
2018-06-08T09:03:40.925Z,11.43
2018-06-08T09:06:09.574Z,11.13
2018-06-08T09:08:38.243Z,10.53
2018-06-08T09:11:07.497Z,10.97
2018-06-08T09:13:36.250Z,10.17
2018-06-08T09:16:04.940Z,10.30
2018-06-08T09:18:34.528Z,10.33
2018-06-08T09:21:03.341Z,10.30
2018-06-08T09:23:32.926Z,10.50
2018-06-08T09:26:01.724Z,9.63
2018-06-08T09:28:30.813Z,11.00
2018-06-08T09:30:59.738Z,10.83
2018-06-08T09:33:29.196Z,11.50
2018-06-08T09:35:57.927Z,11.70
2018-06-08T09:38:27.089Z,12.00
2018-06-08T09:40:55.832Z,14.50
2018-06-08T09:43:24.498Z,11.70
2018-06-08T09:45:53.140Z,12.57
2018-06-08T09:48:21.743Z,12.67
2018-06-08T09:50:50.450Z,12.80
2018-06-08T09:53:19.079Z,13.37
2018-06-08T09:55:47.779Z,13.70
2018-06-08T09:58:16.660Z,14.20
2018-06-08T10:00:44.901Z,13.20
2018-06-08T10:03:13.586Z,13.83
2018-06-08T10:05:42.306Z,15.60
2018-06-08T10:08:11.017Z,14.80
2018-06-08T10:10:39.644Z,13.23
2018-06-08T10:13:08.347Z,13.30
2018-06-08T10:15:37.015Z,14.20
2018-06-08T10:18:05.786Z,12.63
2018-06-08T10:20:34.743Z,12.33
2018-06-08T10:23:03.450Z,13.80
2018-06-08T10:25:32.102Z,13.80
2018-06-08T10:28:00.762Z,13.97
2018-06-08T10:30:29.425Z,11.97
2018-06-08T10:32:58.082Z,13.50
2018-06-08T10:35:26.393Z,13.37
2018-06-08T10:37:54.945Z,14.23
2018-06-08T10:40:23.529Z,13.57
2018-06-08T10:42:52.166Z,13.07
2018-06-08T10:45:20.893Z,13.67
2018-06-08T10:47:49.239Z,12.20
2018-06-08T10:50:17.777Z,12.57
2018-06-08T10:52:46.363Z,14.50
2018-06-08T10:55:15.657Z,12.43
2018-06-08T10:57:44.291Z,13.47
2018-06-08T11:00:12.917Z,13.30
2018-06-08T11:02:41.674Z,13.13
2018-06-08T11:05:10.287Z,14.40
2018-06-08T11:07:39.003Z,13.00
2018-06-08T11:10:07.659Z,12.53
2018-06-08T11:12:37.090Z,12.50
2018-06-08T11:15:05.847Z,12.97
2018-06-08T11:17:34.554Z,11.90
2018-06-08T11:20:03.345Z,11.90
2018-06-08T11:22:33.378Z,12.80
2018-06-08T11:25:02.838Z,13.43
2018-06-08T11:27:33.039Z,12.00
2018-06-08T11:30:01.686Z,14.43
2018-06-08T11:32:31.550Z,15.13
2018-06-08T11:35:01.385Z,14.20
2018-06-08T11:37:29.620Z,12.93
2018-06-08T11:39:58.309Z,15.17
2018-06-08T11:42:27.292Z,14.03
2018-06-08T11:44:55.908Z,14.57
2018-06-08T11:47:24.631Z,13.90
2018-06-08T11:49:53.622Z,14.40
2018-06-08T11:52:23.257Z,13.53
2018-06-08T11:54:51.984Z,12.87
2018-06-08T11:57:20.697Z,12.87
2018-06-08T11:59:49.189Z,12.40
2018-06-08T12:02:17.957Z,12.27
2018-06-08T12:04:46.457Z,12.33
2018-06-08T12:07:14.822Z,12.83
2018-06-08T12:09:44.294Z,13.00
2018-06-08T12:12:13.159Z,13.27
2018-06-08T12:14:42.370Z,13.60
2018-06-08T12:17:12.276Z,11.30
2018-06-08T12:19:42.006Z,13.03
2018-06-08T12:22:10.674Z,14.27
2018-06-08T12:24:39.875Z,13.40
2018-06-08T12:27:08.794Z,13.37
2018-06-08T12:29:46.197Z,13.30
2018-06-08T12:32:14.794Z,12.00
2018-06-08T12:34:45.588Z,14.20
2018-06-08T12:40:04.016Z,12.37
2018-06-08T12:43:16.229Z,12.77
2018-06-08T12:46:25.371Z,13.13
2018-06-08T12:48:54.245Z,13.03
2018-06-08T12:51:23.042Z,11.43
2018-06-08T12:53:51.783Z,13.53
2018-06-08T12:56:20.542Z,12.07
2018-06-08T12:58:49.228Z,13.00
2018-06-08T13:01:18.555Z,13.43
2018-06-08T13:03:49.980Z,12.10
2018-06-08T13:06:19.344Z,11.40
2018-06-08T13:08:48.535Z,11.67
2018-06-08T13:11:18.075Z,12.43
2018-06-08T13:13:47.692Z,13.13
2018-06-08T13:16:16.424Z,13.17
2018-06-08T13:18:44.994Z,12.30
2018-06-08T13:21:13.754Z,12.27
2018-06-08T13:23:47.162Z,11.27
2018-06-08T13:26:16.002Z,11.43
2018-06-08T13:28:44.629Z,11.83
2018-06-08T13:31:13.649Z,11.80
2018-06-08T13:33:42.460Z,12.10
2018-06-08T13:36:11.794Z,11.60
2018-06-08T13:38:40.487Z,13.53
2018-06-08T13:41:09.182Z,11.87
2018-06-08T13:43:38.108Z,11.80
2018-06-08T13:47:09.834Z,11.67
2018-06-08T13:49:38.569Z,12.13
2018-06-08T13:52:07.211Z,12.97
2018-06-08T13:54:35.928Z,12.23
2018-06-08T13:57:04.620Z,13.43
2018-06-08T13:59:33.314Z,12.63
2018-06-08T14:02:02.065Z,12.63
2018-06-08T14:04:30.683Z,14.30
2018-06-08T14:06:59.320Z,13.90
2018-06-08T14:09:31.116Z,13.27
2018-06-08T14:11:59.821Z,14.00
2018-06-08T14:14:28.432Z,15.43
2018-06-08T14:16:57.111Z,13.30
2018-06-08T14:19:26.020Z,14.70
2018-06-08T14:21:54.606Z,15.87
2018-06-08T14:24:23.173Z,16.00
2018-06-08T14:26:51.879Z,16.00
2018-06-08T14:29:20.169Z,16.23
2018-06-08T14:31:52.404Z,16.57
2018-06-08T14:35:09.030Z,16.53
2018-06-08T14:37:43.937Z,17.73
2018-06-08T14:53:57.785Z,14.73
2018-06-08T15:06:16.162Z,14.40
2018-06-08T15:08:44.945Z,15.80
2018-06-08T15:11:13.858Z,15.20
2018-06-08T15:13:42.804Z,15.97
2018-06-08T15:16:11.669Z,15.47
2018-06-08T15:18:40.779Z,16.50
2018-06-08T15:21:10.636Z,16.30
2018-06-08T15:23:39.484Z,15.87
2018-06-08T15:32:08.027Z,14.17
2018-06-08T15:34:36.799Z,15.43
2018-06-08T15:37:05.613Z,13.40
2018-06-08T15:39:35.927Z,16.70
2018-06-08T15:42:05.080Z,15.43
2018-06-08T15:44:33.937Z,11.87
2018-06-08T15:47:02.763Z,9.13
2018-06-08T15:49:31.450Z,10.50
2018-06-08T15:51:59.943Z,10.50
2018-06-08T15:54:28.802Z,10.17
2018-06-08T15:56:58.058Z,10.40
2018-06-08T15:59:27.020Z,10.47
2018-06-08T16:01:56.051Z,13.07
2018-06-08T16:04:28.244Z,11.33
2018-06-08T16:06:56.872Z,11.10
2018-06-08T16:09:25.506Z,9.90
2018-06-08T16:11:54.367Z,9.90
2018-06-08T16:14:23.274Z,11.10
2018-06-08T16:16:52.127Z,10.50
2018-06-08T16:19:20.955Z,11.10
2018-06-08T16:21:49.744Z,10.93
2018-06-08T16:24:24.508Z,11.17
2018-06-08T16:27:00.179Z,9.93
2018-06-08T16:29:32.176Z,9.53
2018-06-08T16:32:04.322Z,9.30
2018-06-08T16:34:41.633Z,10.07
2018-06-08T16:37:10.322Z,10.50
2018-06-08T16:39:39.088Z,11.47
2018-06-08T16:42:07.791Z,10.23
2018-06-08T16:44:36.523Z,11.63
2018-06-08T16:47:05.444Z,11.83
2018-06-08T16:49:34.210Z,11.60
2018-06-08T16:52:02.914Z,11.83
2018-06-08T16:54:31.570Z,12.40
2018-06-08T16:57:00.221Z,12.17
2018-06-08T16:59:29.000Z,11.43
2018-06-08T17:01:58.504Z,12.40
2018-06-08T17:04:27.198Z,12.70
2018-06-08T17:06:55.983Z,12.33
2018-06-08T17:09:24.758Z,12.73
2018-06-08T17:11:53.518Z,11.80
2018-06-08T17:14:22.234Z,12.20
2018-06-08T17:16:51.252Z,12.37
2018-06-08T17:19:20.274Z,11.47
2018-06-08T17:21:48.754Z,12.00
2018-06-08T17:24:17.588Z,11.37
2018-06-08T17:26:46.360Z,10.23
2018-06-08T17:29:15.310Z,10.70
2018-06-08T17:31:44.063Z,11.30
2018-06-08T17:34:12.979Z,15.10
2018-06-08T17:36:41.713Z,15.73
2018-06-08T17:39:10.525Z,16.57
2018-06-08T17:41:39.554Z,14.23
2018-06-08T17:44:08.268Z,14.70
2018-06-08T17:46:37.052Z,15.80
2018-06-08T17:49:05.755Z,14.50
2018-06-08T17:51:35.242Z,13.00
2018-06-08T17:54:04.555Z,13.87
2018-06-08T17:56:35.976Z,13.60
2018-06-08T17:59:12.954Z,12.03
2018-06-08T18:01:43.066Z,11.40
2018-06-08T18:04:21.060Z,10.57
2018-06-08T18:06:53.206Z,12.00
2018-06-08T18:09:26.757Z,10.70
2018-06-08T18:11:57.622Z,10.10
2018-06-08T18:14:30.177Z,9.70
2018-06-08T18:17:06.019Z,11.47
2018-06-08T18:19:41.969Z,9.70
2018-06-08T18:22:17.190Z,9.40
2018-06-08T18:24:52.090Z,9.90
2018-06-08T18:27:22.076Z,8.70
2018-06-08T18:29:51.713Z,9.27
2018-06-08T18:32:21.356Z,8.80
2018-06-08T18:34:50.854Z,9.13
2018-06-08T18:37:20.008Z,9.40
2018-06-08T18:42:26.145Z,10.40
2018-06-08T18:44:58.498Z,10.87
2018-06-08T18:47:29.680Z,8.37
2018-06-08T18:50:00.470Z,10.40
2018-06-08T18:52:30.005Z,10.03
2018-06-08T18:54:59.280Z,10.00
2018-06-08T18:57:28.409Z,10.57
2018-06-08T18:59:58.682Z,10.67
2018-06-08T19:02:27.126Z,10.67
2018-06-08T19:04:55.800Z,11.40
2018-06-08T19:07:24.524Z,13.47
2018-06-08T19:09:55.263Z,14.33
2018-06-08T19:12:24.714Z,12.70
2018-06-08T19:14:53.688Z,12.00
2018-06-08T19:17:22.988Z,12.50
2018-06-08T19:19:53.150Z,10.87
2018-06-08T19:22:23.511Z,11.40
2018-06-08T19:24:52.583Z,10.97
2018-06-08T19:27:21.599Z,10.83
2018-06-08T19:29:51.809Z,12.30
2018-06-08T19:32:21.413Z,10.60
2018-06-08T19:34:50.085Z,13.07
2018-06-08T19:37:19.010Z,12.80
2018-06-08T19:39:47.820Z,13.70
2018-06-08T19:42:16.495Z,15.37
2018-06-08T19:44:45.265Z,14.27
2018-06-08T19:47:15.792Z,14.27
2018-06-08T19:49:44.958Z,14.97
2018-06-08T19:52:13.731Z,16.90
2018-06-08T19:54:43.378Z,14.77
2018-06-08T19:57:12.196Z,16.13
2018-06-08T19:59:47.895Z,15.47
2018-06-08T20:02:16.722Z,14.67
2018-06-08T20:04:45.810Z,15.30
2018-06-08T20:07:14.648Z,13.87
2018-06-08T20:09:43.176Z,15.13
2018-06-08T20:12:12.171Z,15.60
2018-06-08T20:14:40.826Z,16.40
2018-06-08T20:17:11.856Z,15.10
2018-06-08T20:19:40.687Z,14.17
2018-06-08T20:22:09.422Z,12.77
2018-06-08T20:24:38.190Z,12.17
2018-06-08T20:27:06.957Z,12.43
2018-06-08T20:29:35.737Z,13.77
2018-06-08T20:32:04.477Z,14.60
2018-06-08T20:34:33.186Z,14.60
2018-06-08T20:37:01.911Z,14.40
2018-06-08T20:39:30.626Z,13.20
2018-06-08T20:42:01.709Z,13.67
2018-06-08T20:44:30.498Z,11.40
2018-06-08T20:47:00.011Z,11.40
2018-06-08T20:49:28.843Z,10.50
2018-06-08T20:51:57.550Z,9.70
2018-06-08T20:54:26.326Z,11.27
2018-06-08T20:57:06.221Z,10.97
2018-06-08T20:59:35.148Z,12.53
2018-06-08T21:02:04.214Z,11.60
2018-06-08T21:04:32.943Z,12.00
2018-06-08T21:07:01.359Z,12.23
2018-06-08T21:09:39.664Z,12.93
2018-06-08T21:12:08.117Z,13.47
2018-06-08T21:14:36.843Z,12.30
2018-06-08T21:17:05.528Z,12.47
2018-06-08T21:19:43.857Z,11.77
2018-06-08T21:22:12.538Z,12.67
2018-06-08T21:24:41.296Z,12.73
2018-06-08T21:27:09.949Z,13.40
2018-06-08T21:29:41.864Z,15.03
2018-06-08T21:32:10.526Z,14.07
2018-06-08T21:34:39.223Z,14.67
2018-06-08T21:37:07.559Z,13.90
2018-06-08T21:39:36.265Z,14.40
2018-06-08T21:42:04.877Z,12.90
2018-06-08T21:44:33.119Z,12.47
2018-06-08T21:47:01.743Z,13.23
2018-06-08T21:49:30.369Z,12.20
2018-06-08T21:51:59.039Z,12.93
2018-06-08T21:54:27.624Z,12.57
2018-06-08T21:56:56.278Z,11.67
2018-06-08T21:59:24.590Z,12.83
2018-06-08T22:01:53.340Z,13.30
2018-06-08T22:04:22.348Z,13.33
2018-06-08T22:06:50.619Z,12.30
2018-06-08T22:09:19.379Z,13.03
2018-06-08T22:11:48.143Z,12.80
2018-06-08T22:14:16.790Z,12.87
2018-06-08T22:16:45.519Z,13.20
2018-06-08T22:19:14.169Z,15.90
2018-06-08T22:21:42.806Z,13.70
2018-06-08T22:24:11.597Z,13.90
2018-06-08T22:26:40.214Z,14.40
2018-06-08T22:29:08.494Z,13.63
2018-06-08T22:31:37.002Z,14.30
2018-06-08T22:34:05.764Z,13.93
2018-06-08T22:36:34.002Z,13.33
2018-06-08T22:39:02.674Z,14.77
2018-06-08T22:41:31.376Z,13.50
2018-06-08T22:43:59.990Z,14.83
2018-06-08T22:46:28.619Z,13.00
2018-06-08T22:48:57.239Z,13.80
2018-06-08T22:51:25.873Z,15.83
2018-06-08T22:53:54.490Z,13.57
2018-06-08T22:56:23.058Z,12.90
2018-06-08T22:58:52.069Z,13.10
2018-06-08T23:01:20.671Z,13.40
2018-06-08T23:03:49.304Z,14.07
2018-06-08T23:06:18.026Z,13.83
2018-06-08T23:08:46.652Z,13.77
2018-06-08T23:11:15.341Z,12.33
2018-06-08T23:13:43.977Z,12.07
2018-06-08T23:16:12.559Z,12.53
2018-06-08T23:18:41.281Z,12.67
2018-06-08T23:21:09.916Z,13.30
2018-06-08T23:23:38.528Z,13.73
2018-06-08T23:26:07.181Z,12.47
2018-06-08T23:28:36.004Z,13.83
2018-06-08T23:31:04.711Z,12.63
2018-06-08T23:33:33.367Z,13.50
2018-06-08T23:36:02.054Z,13.97
2018-06-08T23:38:30.772Z,14.90
2018-06-08T23:40:59.413Z,15.33
2018-06-08T23:43:28.074Z,15.43
2018-06-08T23:45:56.613Z,14.30
2018-06-08T23:48:25.229Z,16.27
2018-06-08T23:50:53.900Z,16.00
2018-06-08T23:53:22.478Z,17.57
2018-06-08T23:55:51.055Z,16.70
2018-06-08T23:58:19.666Z,19.23
